Time;durP1;ratioP1;P1;durP2;ratioP2;P2;SDS_P1;SDS_P2;PMS_P1;PMS_P2;Temp;Humidity;BMP_temperature;BMP_pressure;BME280_temperature;BME280_humidity;BME280_pressure;Samples;Min_cycle;Max_cycle;Signal;HPM_P1;HPM_P2
2023/07/29 00:01:41;;;;;;;;;2.50;2.50;;;;;22.62;60.77;100448.19;5045895;28;45281;-64
2023/07/29 00:04:08;;;;;;;;;5.00;2.50;;;;;22.61;60.63;100450.00;5046209;28;45308;-64
2023/07/29 00:06:34;;;;;;;;;4.00;3.50;;;;;22.59;60.69;100445.72;5028055;28;46220;-64
2023/07/29 00:08:59;;;;;;;;;2.75;2.75;;;;;22.59;60.73;100454.63;5046017;28;45392;-64
2023/07/29 00:11:24;;;;;;;;;4.00;4.00;;;;;22.58;60.94;100449.34;5045618;28;50178;-64
2023/07/29 00:13:50;;;;;;;;;3.00;2.00;;;;;22.56;60.44;100428.03;5045959;28;45298;-64
2023/07/29 00:16:17;;;;;;;;;5.25;4.00;;;;;22.56;60.73;100433.38;5045669;28;45336;-65
2023/07/29 00:18:43;;;;;;;;;4.25;3.25;;;;;22.57;60.76;100432.44;5045931;28;46956;-64
2023/07/29 00:21:08;;;;;;;;;3.75;3.75;;;;;22.53;60.86;100430.94;5045589;28;45309;-64
2023/07/29 00:23:33;;;;;;;;;4.25;3.25;;;;;22.51;60.51;100427.50;5045684;28;45998;-64
2023/07/29 00:25:59;;;;;;;;;3.50;2.50;;;;;22.48;60.64;100428.56;5045613;28;45153;-63
2023/07/29 00:28:24;;;;;;;;;1.50;1.50;;;;;22.49;60.40;100427.63;5045258;28;45545;-64
2023/07/29 00:30:50;;;;;;;;;2.00;2.00;;;;;22.46;60.25;100419.78;5045811;28;45464;-64
2023/07/29 00:33:15;;;;;;;;;3.00;3.00;;;;;22.45;59.91;100422.56;5045849;28;45312;-64
2023/07/29 00:35:41;;;;;;;;;2.00;2.00;;;;;22.41;59.73;100419.25;5045683;28;45447;-64
2023/07/29 00:38:06;;;;;;;;;2.00;2.00;;;;;22.43;59.78;100428.03;5045528;28;45409;-64
2023/07/29 00:40:36;;;;;;;;;1.25;1.25;;;;;22.41;59.96;100427.28;5044130;28;54853;-64
2023/07/29 00:43:01;;;;;;;;;2.00;2.00;;;;;22.39;59.81;100427.38;5042387;28;45242;-64
2023/07/29 00:45:29;;;;;;;;;1.75;1.75;;;;;22.35;59.30;100431.22;5042109;28;45361;-63
2023/07/29 00:47:54;;;;;;;;;3.00;3.00;;;;;22.34;59.15;100431.28;5042162;28;45355;-63
2023/07/29 00:50:20;;;;;;;;;3.00;2.00;;;;;22.31;59.05;100424.34;5042057;28;45242;-63
2023/07/29 00:52:46;;;;;;;;;1.00;0.50;;;;;22.26;58.50;100437.19;5042451;28;45394;-63
2023/07/29 00:55:11;;;;;;;;;1.25;1.25;;;;;22.25;58.66;100451.53;5041949;28;45309;-63
2023/07/29 00:57:37;;;;;;;;;0.75;0.75;;;;;22.20;58.21;100435.78;5042177;28;47286;-63
2023/07/29 01:00:04;;;;;;;;;1.00;1.00;;;;;22.21;57.92;100433.97;5041946;28;45308;-63
2023/07/29 01:02:32;;;;;;;;;2.50;1.00;;;;;22.15;58.26;100432.56;5041902;28;45371;-64
2023/07/29 01:04:58;;;;;;;;;1.50;1.00;;;;;22.15;58.28;100439.72;5041812;28;45572;-63
2023/07/29 01:07:42;;;;;;;;;1.00;1.00;;;;;22.12;58.35;100446.16;5042077;28;46286;-63
2023/07/29 01:10:23;;;;;;;;;1.00;1.00;;;;;22.07;57.54;100441.13;5041653;28;45295;-63
2023/07/29 01:12:54;;;;;;;;;1.00;1.00;;;;;22.06;57.83;100442.09;5041741;28;45266;-63
2023/07/29 01:15:28;;;;;;;;;1.75;1.75;;;;;22.06;57.78;100439.41;5041918;28;45299;-63
2023/07/29 01:18:04;;;;;;;;;1.00;1.00;;;;;22.03;57.84;100444.94;5041419;28;45531;-63
2023/07/29 01:20:33;;;;;;;;;2.50;1.00;;;;;22.02;58.04;100440.53;5041690;28;45279;-64
2023/07/29 01:22:58;;;;;;;;;2.50;2.00;;;;;22.01;57.69;100432.63;5041617;28;45398;-63
2023/07/29 01:25:24;;;;;;;;;1.00;1.00;;;;;22.01;57.74;100424.59;5041546;28;46532;-63
2023/07/29 01:27:51;;;;;;;;;2.00;1.25;;;;;21.99;57.63;100424.72;5041472;28;46089;-64
2023/07/29 01:30:17;;;;;;;;;1.00;1.00;;;;;21.98;57.71;100414.13;5040911;28;45189;-63
2023/07/29 01:32:45;;;;;;;;;1.50;1.00;;;;;21.96;57.49;100387.50;5041437;28;45286;-64
2023/07/29 01:35:31;;;;;;;;;1.50;1.00;;;;;21.95;57.45;100400.94;5041527;28;45381;-63
2023/07/29 01:38:03;;;;;;;;;1.00;1.00;;;;;21.92;57.36;100421.59;5041420;28;45430;-63
2023/07/29 01:40:28;;;;;;;;;2.00;2.00;;;;;21.90;57.78;100431.53;5041272;28;45238;-63
2023/07/29 01:42:54;;;;;;;;;1.25;1.25;;;;;21.82;57.72;100414.28;5040569;28;45284;-64
2023/07/29 01:45:23;;;;;;;;;1.00;1.00;;;;;21.73;57.29;100413.94;5041353;28;45226;-63
2023/07/29 01:47:49;;;;;;;;;1.00;1.00;;;;;21.78;57.67;100432.34;5041144;28;46139;-63
2023/07/29 01:50:14;;;;;;;;;2.50;1.75;;;;;21.74;57.83;100422.81;5041237;28;45328;-63
2023/07/29 01:52:39;;;;;;;;;3.00;3.00;;;;;21.72;57.06;100416.72;5040615;28;45305;-63
2023/07/29 01:55:05;;;;;;;;;3.00;2.00;;;;;21.70;57.88;100415.97;5041068;28;45486;-63
2023/07/29 01:57:30;;;;;;;;;1.25;1.25;;;;;21.67;57.49;100422.38;5041314;28;46154;-63
2023/07/29 01:59:55;;;;;;;;;0.75;0.75;;;;;21.66;57.28;100415.31;5040990;28;45285;-63
2023/07/29 02:02:21;;;;;;;;;2.00;1.00;;;;;21.63;57.29;100434.22;5041140;28;45174;-63
2023/07/29 02:04:51;;;;;;;;;2.00;2.00;;;;;21.61;57.53;100451.31;5041128;28;45209;-63
2023/07/29 02:07:16;;;;;;;;;2.00;2.00;;;;;21.59;57.66;100454.94;5040987;28;46723;-63
2023/07/29 02:09:41;;;;;;;;;2.00;1.00;;;;;21.59;57.56;100454.94;5022474;28;45225;-63
2023/07/29 02:12:07;;;;;;;;;1.00;1.00;;;;;21.54;57.59;100462.38;5040833;28;45289;-63
2023/07/29 02:14:32;;;;;;;;;2.00;2.00;;;;;21.50;57.47;100428.78;5040860;28;45254;-63
2023/07/29 02:16:58;;;;;;;;;1.00;1.00;;;;;21.49;57.70;100404.84;5040275;28;57222;-63
2023/07/29 02:19:23;;;;;;;;;2.75;1.00;;;;;21.47;57.26;100388.91;5040897;28;45263;-63
2023/07/29 02:21:48;;;;;;;;;1.25;1.25;;;;;21.43;57.26;100412.31;5027800;28;45724;-63
2023/07/29 02:24:13;;;;;;;;;1.25;1.25;;;;;21.43;57.47;100416.78;5025728;28;45298;-63
2023/07/29 02:26:39;;;;;;;;;3.00;1.75;;;;;21.40;57.20;100417.84;5020546;28;46027;-63
2023/07/29 02:29:04;;;;;;;;;2.00;1.75;;;;;21.38;57.35;100424.22;5020846;28;45270;-63
2023/07/29 02:31:29;;;;;;;;;1.00;1.00;;;;;21.33;57.16;100421.84;5020739;28;45392;-63
2023/07/29 02:33:55;;;;;;;;;1.00;1.00;;;;;21.31;57.52;100421.09;5020769;28;45424;-63
2023/07/29 02:36:21;;;;;;;;;2.00;2.00;;;;;21.26;57.24;100410.72;5020680;28;47195;-63
2023/07/29 02:38:46;;;;;;;;;2.00;2.00;;;;;21.23;57.48;100420.72;5020708;28;45266;-63
2023/07/29 02:41:12;;;;;;;;;1.50;1.00;;;;;21.23;57.44;100436.75;5020656;28;46680;-63
2023/07/29 02:43:39;;;;;;;;;1.00;1.00;;;;;21.20;57.22;100442.31;5020571;28;45398;-63
2023/07/29 02:46:04;;;;;;;;;0.50;0.50;;;;;21.17;57.47;100434.47;5002361;28;46305;-63
2023/07/29 02:48:30;;;;;;;;;3.25;3.25;;;;;21.16;57.18;100435.47;5020166;28;47390;-63
2023/07/29 02:50:55;;;;;;;;;1.00;1.00;;;;;21.13;57.25;100432.97;5020755;28;45392;-63
2023/07/29 02:53:22;;;;;;;;;2.00;2.00;;;;;21.09;57.22;100429.63;5018722;28;45467;-63
2023/07/29 02:55:48;;;;;;;;;2.00;2.00;;;;;21.07;57.42;100429.72;5020458;28;46262;-63
2023/07/29 02:58:13;;;;;;;;;1.00;1.00;;;;;21.02;57.70;100439.84;5020887;28;45384;-63
2023/07/29 03:00:41;;;;;;;;;2.00;2.00;;;;;21.00;57.13;100428.41;5040547;28;45356;-63
2023/07/29 03:03:07;;;;;;;;;3.25;2.25;;;;;20.96;57.40;100429.56;5039880;28;45427;-63
2023/07/29 03:05:32;;;;;;;;;1.75;1.75;;;;;20.91;57.64;100435.16;5039611;28;46004;-63
2023/07/29 03:07:57;;;;;;;;;3.00;3.00;;;;;20.89;57.51;100437.09;5038407;28;53501;-64
2023/07/29 03:10:23;;;;;;;;;2.50;1.50;;;;;20.88;57.79;100435.38;5039842;28;51404;-63
2023/07/29 03:12:48;;;;;;;;;3.00;3.00;;;;;20.86;57.92;100445.28;5039949;28;45411;-63
2023/07/29 03:15:14;;;;;;;;;1.50;1.00;;;;;20.84;57.38;100446.34;5040129;28;45391;-63
2023/07/29 03:17:39;;;;;;;;;2.00;2.00;;;;;20.78;57.42;100447.59;5039790;28;45252;-63
2023/07/29 03:20:05;;;;;;;;;2.25;2.00;;;;;20.80;57.36;100460.84;5040119;28;45213;-63
2023/07/29 03:22:30;;;;;;;;;1.25;1.25;;;;;20.78;57.24;100467.13;5039858;28;45530;-63
2023/07/29 03:24:56;;;;;;;;;2.00;2.00;;;;;20.74;57.56;100460.25;5039471;28;48832;-63
2023/07/29 03:27:21;;;;;;;;;2.00;2.00;;;;;20.73;58.09;100466.56;5039897;28;45297;-63
2023/07/29 03:29:46;;;;;;;;;2.00;1.00;;;;;20.72;57.43;100472.84;5040075;28;45295;-63
2023/07/29 03:32:12;;;;;;;;;2.00;2.00;;;;;20.71;57.67;100479.13;5039501;28;48375;-63
2023/07/29 03:34:38;;;;;;;;;1.00;1.00;;;;;20.68;57.86;100479.28;5039751;28;45923;-63
2023/07/29 03:37:03;;;;;;;;;2.00;2.00;;;;;20.67;57.69;100480.25;5039742;28;45377;-63
2023/07/29 03:39:29;;;;;;;;;2.00;2.00;;;;;20.67;57.86;100482.06;5038963;28;45313;-63
2023/07/29 03:41:54;;;;;;;;;3.50;2.00;;;;;20.63;57.61;100476.03;5039046;28;53737;-64
2023/07/29 03:44:19;;;;;;;;;4.00;2.00;;;;;20.64;57.52;100477.78;5039357;28;60526;-63
2023/07/29 03:46:45;;;;;;;;;1.75;1.75;;;;;20.62;57.71;100483.19;5039238;28;46449;-63
2023/07/29 03:49:10;;;;;;;;;2.00;2.00;;;;;20.59;57.66;100471.81;5039992;28;45282;-63
2023/07/29 03:51:36;;;;;;;;;2.00;2.00;;;;;20.59;57.92;100467.34;5039634;28;45580;-63
2023/07/29 03:54:01;;;;;;;;;3.00;3.00;;;;;20.58;58.16;100478.13;5039764;28;45382;-63
2023/07/29 03:56:26;;;;;;;;;2.75;2.50;;;;;20.56;58.18;100482.69;5039381;28;45316;-63
2023/07/29 03:58:53;;;;;;;;;3.75;3.00;;;;;20.51;58.13;100477.63;5039817;28;45254;-63
2023/07/29 04:01:18;;;;;;;;;2.50;2.50;;;;;20.52;57.66;100481.19;5039262;28;45234;-63
2023/07/29 04:03:46;;;;;;;;;1.50;1.50;;;;;20.46;58.51;100472.59;5021229;28;46236;-63
2023/07/29 04:06:11;;;;;;;;;4.25;4.25;;;;;20.45;58.30;100476.19;5039471;28;45381;-63
2023/07/29 04:08:37;;;;;;;;;1.50;1.50;;;;;20.45;58.26;100478.00;5039487;28;45289;-63
2023/07/29 04:11:02;;;;;;;;;3.25;3.25;;;;;20.41;58.10;100473.78;5031158;28;45501;-63
2023/07/29 04:13:27;;;;;;;;;2.50;2.50;;;;;20.44;57.73;100487.81;5034974;28;46025;-63
2023/07/29 04:15:53;;;;;;;;;3.50;3.00;;;;;20.45;57.91;100486.00;5039456;28;45433;-63
2023/07/29 04:18:18;;;;;;;;;2.00;2.00;;;;;20.44;57.64;100486.97;5042899;28;45306;-63
2023/07/29 04:20:43;;;;;;;;;3.50;1.50;;;;;20.44;57.82;100495.81;5042828;28;45455;-63
2023/07/29 04:23:09;;;;;;;;;2.00;2.00;;;;;20.39;58.03;100489.03;5042431;28;47375;-63
2023/07/29 04:25:34;;;;;;;;;2.00;2.00;;;;;20.44;57.84;100498.50;5042493;28;45324;-63
2023/07/29 04:27:59;;;;;;;;;2.00;2.00;;;;;20.43;58.31;100491.44;5042542;28;45687;-63
2023/07/29 04:30:24;;;;;;;;;2.75;2.00;;;;;20.41;58.00;100498.66;5041473;28;45311;-63
2023/07/29 04:32:50;;;;;;;;;4.00;3.00;;;;;20.40;58.07;100507.66;5042151;28;47471;-63
2023/07/29 04:35:15;;;;;;;;;12.75;12.75;;;;;20.38;57.60;100501.53;5042382;28;45320;-63
2023/07/29 04:37:41;;;;;;;;;2.75;2.75;;;;;20.36;58.22;100503.41;5042501;28;45293;-63
2023/07/29 04:40:06;;;;;;;;;5.00;3.00;;;;;20.34;57.84;100508.00;5042346;28;45423;-63
2023/07/29 04:42:32;;;;;;;;;2.25;2.25;;;;;20.36;57.96;100506.09;5042201;28;45179;-63
2023/07/29 04:44:57;;;;;;;;;1.75;1.75;;;;;20.35;58.06;100492.84;5042257;28;45369;-63
2023/07/29 04:47:23;;;;;;;;;3.00;0.00;;;;;20.35;57.64;100498.19;5042292;28;45237;-63
2023/07/29 04:49:48;;;;;;;;;4.25;4.25;;;;;20.35;58.21;100498.19;5040845;28;52105;-63
2023/07/29 04:52:14;;;;;;;;;6.50;5.75;;;;;20.34;57.83;100496.44;5042080;28;46051;-63
2023/07/29 04:54:40;;;;;;;;;4.50;4.50;;;;;20.34;58.08;100494.66;5042074;28;45273;-63
2023/07/29 04:57:06;;;;;;;;;1.50;1.25;;;;;20.37;58.19;100491.78;5041919;28;45265;-63
2023/07/29 04:59:31;;;;;;;;;7.00;6.25;;;;;20.35;57.70;100493.72;5042155;28;45532;-63
2023/07/29 05:01:56;;;;;;;;;28.50;28.25;;;;;20.38;58.30;100495.34;5041546;28;46330;-63
2023/07/29 05:04:23;;;;;;;;;7.00;6.25;;;;;20.38;58.33;100495.34;5041876;28;45366;-63
2023/07/29 05:06:48;;;;;;;;;30.50;30.25;;;;;20.37;58.29;100493.63;5042044;28;45452;-63
2023/07/29 05:09:18;;;;;;;;;8.25;7.25;;;;;20.39;58.29;100497.03;5032682;28;45435;-63
2023/07/29 05:11:45;;;;;;;;;8.50;5.50;;;;;20.36;58.22;100500.75;5023559;28;45234;-63
2023/07/29 05:14:11;;;;;;;;;10.75;10.75;;;;;20.38;57.69;100506.88;5041769;28;45443;-63
2023/07/29 05:16:36;;;;;;;;;8.00;7.00;;;;;20.38;58.19;100511.34;5041548;28;45513;-63
2023/07/29 05:19:02;;;;;;;;;6.25;4.75;;;;;20.36;57.83;100500.75;5041751;28;45305;-63
2023/07/29 05:21:27;;;;;;;;;12.50;10.75;;;;;20.38;57.75;100506.88;5041423;28;45326;-64
2023/07/29 05:23:52;;;;;;;;;20.50;20.50;;;;;20.36;57.82;100502.56;5041692;28;45365;-63
2023/07/29 05:26:18;;;;;;;;;7.00;6.00;;;;;20.37;57.83;100499.81;5041751;28;45311;-63
2023/07/29 05:28:43;;;;;;;;;2.25;2.25;;;;;20.39;57.96;100502.38;5041617;28;45482;-63
2023/07/29 05:31:08;;;;;;;;;3.00;2.00;;;;;20.40;58.42;100496.09;5041317;28;46857;-63
2023/07/29 05:33:36;;;;;;;;;1.00;1.00;;;;;20.39;58.36;100497.91;5041567;28;48190;-63
2023/07/29 05:36:01;;;;;;;;;3.50;3.00;;;;;20.36;58.42;100500.75;5041633;28;45297;-63
2023/07/29 05:38:26;;;;;;;;;1.50;1.50;;;;;20.41;58.32;100509.34;5040198;28;45257;-63
2023/07/29 05:40:52;;;;;;;;;3.00;3.00;;;;;20.40;58.03;100504.97;5041210;28;46117;-63
2023/07/29 05:43:17;;;;;;;;;1.00;1.00;;;;;20.43;58.29;100507.44;5041527;28;46131;-63
2023/07/29 05:45:42;;;;;;;;;1.00;1.00;;;;;20.42;58.37;100500.38;5041315;28;45566;-63
2023/07/29 05:48:07;;;;;;;;;2.00;2.00;;;;;20.45;57.99;100507.34;5041560;28;45213;-63
2023/07/29 05:50:33;;;;;;;;;1.00;1.00;;;;;20.44;58.32;100506.50;5041044;28;49941;-63
2023/07/29 05:52:58;;;;;;;;;3.33;2.33;;;;;20.47;58.13;100510.78;5041416;28;45278;-63
2023/07/29 05:55:24;;;;;;;;;1.00;1.00;;;;;20.49;58.11;100510.69;5041172;28;45420;-63
2023/07/29 05:57:49;;;;;;;;;2.00;1.00;;;;;20.49;58.17;100508.91;5041239;28;45467;-63
2023/07/29 06:00:15;;;;;;;;;1.75;1.75;;;;;20.49;58.20;100516.91;5024848;28;45361;-63
2023/07/29 06:02:40;;;;;;;;;1.00;1.00;;;;;20.52;58.37;100521.22;5034866;28;45166;-63
2023/07/29 06:05:07;;;;;;;;;1.00;1.00;;;;;20.51;58.34;100514.16;5039862;28;45352;-63
2023/07/29 06:07:33;;;;;;;;;0.25;0.25;;;;;20.54;58.08;100513.94;5041053;28;45309;-63
2023/07/29 06:09:59;;;;;;;;;1.00;1.00;;;;;20.51;58.24;100507.00;5040636;28;46323;-63
2023/07/29 06:12:24;;;;;;;;;1.00;1.00;;;;;20.55;58.54;100505.00;5040807;28;45273;-63
2023/07/29 06:14:50;;;;;;;;;1.00;1.00;;;;;20.58;58.02;100507.50;5040985;28;45230;-63
2023/07/29 06:17:15;;;;;;;;;0.00;0.00;;;;;20.58;58.23;100511.00;5040827;28;45345;-63
2023/07/29 06:19:40;;;;;;;;;2.00;1.00;;;;;20.60;58.05;100513.59;5040745;28;45455;-63
2023/07/29 06:22:06;;;;;;;;;4.00;0.00;;;;;20.62;58.48;100517.03;5039414;28;47033;-63
2023/07/29 06:24:32;;;;;;;;;1.00;1.00;;;;;20.63;58.42;100532.94;5040883;28;45231;-63
2023/07/29 06:26:57;;;;;;;;;1.00;0.25;;;;;20.62;58.22;100527.72;5040718;28;45253;-63
2023/07/29 06:29:22;;;;;;;;;1.00;1.00;;;;;20.66;57.94;100541.75;5040354;28;50308;-63
2023/07/29 06:31:48;;;;;;;;;1.25;1.25;;;;;20.65;58.15;100543.53;5040358;28;45447;-63
2023/07/29 06:34:13;;;;;;;;;1.00;1.00;;;;;20.68;58.26;100534.47;5040715;28;45306;-63
2023/07/29 06:36:38;;;;;;;;;0.33;0.33;;;;;20.66;58.40;100534.56;5039198;28;48728;-63
2023/07/29 06:39:04;;;;;;;;;1.50;1.50;;;;;20.74;57.65;100553.72;5039815;28;45376;-63
2023/07/29 06:41:30;;;;;;;;;2.00;0.33;;;;;20.75;57.70;100546.53;5040400;28;45269;-63
2023/07/29 06:43:55;;;;;;;;;0.00;0.00;;;;;20.77;58.00;100542.84;5040656;28;45364;-63
2023/07/29 06:46:21;;;;;;;;;2.00;1.00;;;;;20.80;57.87;100546.28;5040195;28;45430;-63
2023/07/29 06:48:46;;;;;;;;;0.33;0.00;;;;;20.83;58.11;100551.41;5040456;28;45371;-63
2023/07/29 06:51:12;;;;;;;;;0.67;0.00;;;;;20.86;58.00;100551.25;5040513;28;45304;-63
2023/07/29 06:53:37;;;;;;;;;0.00;0.00;;;;;20.87;57.92;100548.47;5040449;28;45299;-63
2023/07/29 06:56:03;;;;;;;;;0.00;0.00;;;;;20.90;58.05;100555.44;5040354;28;45293;-63
2023/07/29 06:58:28;;;;;;;;;0.00;0.00;;;;;20.89;57.87;100545.72;5039251;28;45419;-63
2023/07/29 07:00:53;;;;;;;;;1.00;0.00;;;;;20.90;57.67;100556.28;5040014;28;45276;-63
2023/07/29 07:03:19;;;;;;;;;0.00;0.00;;;;;20.88;57.77;100549.31;5040369;28;45550;-63
2023/07/29 07:05:44;;;;;;;;;0.00;0.00;;;;;20.91;57.71;100559.84;5040480;28;45539;-63
2023/07/29 07:08:10;;;;;;;;;0.00;0.00;;;;;20.91;57.24;100565.19;5039277;28;45317;-63
2023/07/29 07:10:35;;;;;;;;;0.00;0.00;;;;;20.93;58.00;100561.47;5039830;28;46172;-63
2023/07/29 07:13:01;;;;;;;;;2.75;2.25;;;;;20.98;57.70;100571.00;5039912;28;47417;-63
2023/07/29 07:15:26;;;;;;;;;2.25;1.00;;;;;21.01;57.79;100576.19;5040059;28;45233;-63
2023/07/29 07:17:51;;;;;;;;;1.00;1.00;;;;;21.04;57.32;100566.16;5038545;28;46036;-62
2023/07/29 07:20:17;;;;;;;;;2.00;1.00;;;;;21.06;57.35;100572.25;5040012;28;45214;-63
2023/07/29 07:22:42;;;;;;;;;0.50;0.50;;;;;21.05;57.65;100570.53;5039959;28;45620;-63
2023/07/29 07:25:08;;;;;;;;;0.67;0.67;;;;;21.02;57.27;100578.75;5039955;28;45214;-62
2023/07/29 07:27:33;;;;;;;;;0.00;0.00;;;;;20.93;57.86;100553.44;5039794;28;47059;-63
2023/07/29 07:29:58;;;;;;;;;0.00;0.00;;;;;21.08;57.47;100583.72;5039945;28;45210;-63
2023/07/29 07:32:24;;;;;;;;;0.00;0.00;;;;;21.06;57.17;100600.78;5038179;28;50213;-63
2023/07/29 07:34:49;;;;;;;;;0.00;0.00;;;;;21.06;57.11;100577.59;5039796;28;45361;-62
2023/07/29 07:37:14;;;;;;;;;1.00;1.00;;;;;21.07;57.07;100583.81;5039757;28;45337;-63
2023/07/29 07:39:40;;;;;;;;;0.00;0.00;;;;;21.08;57.66;100572.16;5039792;28;45245;-63
2023/07/29 07:42:05;;;;;;;;;1.00;1.00;;;;;21.10;57.33;100586.28;5039672;28;45222;-62
2023/07/29 07:44:31;;;;;;;;;2.67;1.00;;;;;21.09;57.52;100584.56;5039933;28;45281;-62
2023/07/29 07:46:56;;;;;;;;;1.33;1.00;;;;;21.09;56.99;100595.25;5039074;28;52818;-62
2023/07/29 07:49:22;;;;;;;;;1.00;1.00;;;;;21.11;57.20;100602.22;5026603;28;45387;-62
2023/07/29 07:51:47;;;;;;;;;1.00;1.00;;;;;21.08;57.61;100590.84;5040191;28;45332;-63
2023/07/29 07:54:13;;;;;;;;;0.00;0.00;;;;;21.14;56.97;100603.00;5023244;28;45330;-62
2023/07/29 07:56:38;;;;;;;;;0.00;0.00;;;;;21.14;57.59;100590.47;5023078;28;45345;-62
2023/07/29 07:59:03;;;;;;;;;0.25;0.25;;;;;21.15;57.56;100599.38;5013084;28;45250;-63
2023/07/29 08:01:35;;;;;;;;;2.25;2.25;;;;;21.13;57.34;100582.56;5042879;28;45227;-62
2023/07/29 08:04:01;;;;;;;;;2.25;2.25;;;;;21.14;57.25;100595.81;5043016;28;45439;-62
2023/07/29 08:06:26;;;;;;;;;1.75;0.75;;;;;21.17;56.94;100618.81;5042803;28;46179;-62
2023/07/29 08:08:51;;;;;;;;;0.00;0.00;;;;;21.17;57.40;100598.31;5042838;28;48575;-63
2023/07/29 08:11:17;;;;;;;;;2.00;2.00;;;;;21.19;57.43;100596.41;5042974;28;45258;-63
2023/07/29 08:13:42;;;;;;;;;0.00;0.00;;;;;21.20;56.85;100594.59;5042816;28;45238;-63
2023/07/29 08:16:07;;;;;;;;;1.00;1.00;;;;;21.23;56.99;100594.41;5042501;28;45337;-62
2023/07/29 08:18:32;;;;;;;;;2.00;2.00;;;;;21.23;57.35;100589.94;5042743;28;45270;-62
2023/07/29 08:21:02;;;;;;;;;2.25;2.00;;;;;21.27;56.73;100591.47;5042561;28;45431;-62
2023/07/29 08:23:28;;;;;;;;;0.75;0.75;;;;;21.29;57.21;100593.19;5042456;28;45400;-62
2023/07/29 08:25:56;;;;;;;;;1.50;1.50;;;;;21.31;56.71;100586.78;5042292;28;46322;-62
2023/07/29 08:28:24;;;;;;;;;2.00;1.00;;;;;21.35;56.86;100590.97;5042620;28;45433;-62
2023/07/29 08:30:49;;;;;;;;;0.75;0.75;;;;;21.39;56.87;100600.53;5042288;28;45490;-62
2023/07/29 08:33:15;;;;;;;;;1.00;1.00;;;;;21.45;57.30;100588.59;5042381;28;45335;-62
2023/07/29 08:35:40;;;;;;;;;4.25;2.25;;;;;21.47;56.69;100593.84;5041446;28;45329;-62
2023/07/29 08:38:06;;;;;;;;;0.00;0.00;;;;;21.49;57.14;100591.94;5041964;28;45260;-62
2023/07/29 08:40:34;;;;;;;;;0.00;0.00;;;;;21.53;57.07;100593.47;5042369;28;45369;-62
2023/07/29 08:43:04;;;;;;;;;0.00;0.00;;;;;21.57;56.55;100587.88;5042683;28;45268;-62
2023/07/29 08:45:34;;;;;;;;;3.00;3.00;;;;;21.61;56.90;100583.19;5042042;28;45448;-62
2023/07/29 08:48:02;;;;;;;;;2.00;2.00;;;;;21.66;57.09;100586.44;5042338;28;45213;-62
2023/07/29 08:50:32;;;;;;;;;3.00;3.00;;;;;21.72;56.81;100588.72;5042341;28;45348;-62
2023/07/29 08:52:59;;;;;;;;;2.00;2.00;;;;;21.79;56.94;100577.63;5042235;28;45187;-62
2023/07/29 08:55:24;;;;;;;;;1.50;1.50;;;;;21.84;56.82;100586.22;5041822;28;45333;-62
2023/07/29 08:57:50;;;;;;;;;2.25;1.00;;;;;21.88;56.78;100580.56;5042267;28;45163;-62
2023/07/29 09:00:15;;;;;;;;;2.25;2.25;;;;;21.92;57.20;100582.09;5042130;28;45211;-62
2023/07/29 09:02:41;;;;;;;;;3.00;2.25;;;;;21.95;56.90;100573.00;5041311;28;45665;-62
2023/07/29 09:05:07;;;;;;;;;1.50;1.50;;;;;22.01;56.64;100569.94;5042006;28;45441;-62
2023/07/29 09:07:36;;;;;;;;;1.50;1.50;;;;;22.06;56.70;100575.84;5041979;28;45325;-62
2023/07/29 09:10:01;;;;;;;;;1.00;1.00;;;;;22.12;56.48;100566.53;5041925;28;45271;-62
2023/07/29 09:12:27;;;;;;;;;1.50;1.25;;;;;22.20;56.63;100577.63;5042011;28;45290;-62
2023/07/29 09:14:53;;;;;;;;;0.00;0.00;;;;;22.26;56.66;100573.66;5041672;28;45384;-62
2023/07/29 09:17:19;;;;;;;;;2.00;2.00;;;;;22.32;56.60;100569.75;5041822;28;45250;-62
2023/07/29 09:19:48;;;;;;;;;2.00;2.00;;;;;22.40;56.36;100570.09;5041726;28;45256;-63
2023/07/29 09:22:19;;;;;;;;;7.00;4.00;;;;;22.44;56.57;100573.44;5041536;28;45478;-62
2023/07/29 09:24:45;;;;;;;;;2.25;2.25;;;;;22.51;56.34;100569.41;5041518;28;46269;-62
2023/07/29 09:27:23;;;;;;;;;1.00;1.00;;;;;22.54;56.27;100569.16;5040272;28;45415;-62
2023/07/29 09:29:48;;;;;;;;;3.25;3.25;;;;;22.60;56.01;100571.44;5041720;28;45344;-62
2023/07/29 09:32:19;;;;;;;;;1.50;1.00;;;;;22.64;55.88;100558.72;5041309;28;45312;-62
2023/07/29 09:34:44;;;;;;;;;1.00;1.00;;;;;22.66;55.89;100563.00;5041596;28;45317;-62
2023/07/29 09:37:09;;;;;;;;;1.25;1.25;;;;;22.73;55.87;100563.47;5041499;28;45312;-62
2023/07/29 09:39:34;;;;;;;;;1.00;1.00;;;;;22.76;55.80;100567.75;5023718;28;45229;-62
2023/07/29 09:42:00;;;;;;;;;1.00;1.00;;;;;22.79;55.75;100557.69;5041186;28;50807;-64
2023/07/29 09:44:25;;;;;;;;;3.50;3.00;;;;;22.85;55.65;100559.06;5023098;28;59445;-61
2023/07/29 09:46:50;;;;;;;;;2.75;2.25;;;;;22.89;55.93;100560.56;5040944;28;50426;-61
2023/07/29 09:49:16;;;;;;;;;2.00;2.00;;;;;22.96;55.72;100561.84;5041414;28;45324;-61
2023/07/29 09:51:41;;;;;;;;;6.00;2.50;;;;;23.01;55.56;100567.75;5041116;28;52700;-61
2023/07/29 09:54:07;;;;;;;;;1.25;1.25;;;;;23.10;55.76;100554.69;5041092;28;46316;-61
2023/07/29 09:56:32;;;;;;;;;1.00;1.00;;;;;23.18;55.66;100565.75;5023221;28;45269;-61
2023/07/29 09:58:58;;;;;;;;;1.75;1.50;;;;;23.26;55.13;100557.16;5041319;28;45306;-61
2023/07/29 10:01:24;;;;;;;;;1.00;1.00;;;;;23.33;55.26;100562.00;5040898;28;45326;-61
2023/07/29 10:03:50;;;;;;;;;2.75;2.75;;;;;23.41;55.04;100564.13;5041072;28;46474;-61
2023/07/29 10:06:17;;;;;;;;;3.00;3.00;;;;;23.50;55.10;100568.84;5040970;28;45344;-61
2023/07/29 10:08:43;;;;;;;;;6.50;4.50;;;;;23.60;55.07;100547.59;5041211;28;45167;-63
2023/07/29 10:11:10;;;;;;;;;2.75;2.75;;;;;23.69;54.89;100567.53;5022459;28;45390;-64
2023/07/29 10:13:37;;;;;;;;;1.00;1.00;;;;;23.70;54.89;100534.38;5039413;28;45345;-64
2023/07/29 10:16:03;;;;;;;;;2.00;2.00;;;;;23.82;54.69;100562.09;5040472;28;45340;-64
2023/07/29 10:18:30;;;;;;;;;2.75;2.75;;;;;23.88;54.60;100558.97;5041016;28;45320;-64
2023/07/29 10:20:58;;;;;;;;;2.00;2.00;;;;;23.94;54.75;100563.09;5040811;28;45379;-64
2023/07/29 10:23:25;;;;;;;;;3.00;3.00;;;;;23.95;54.42;100562.09;5040509;28;45303;-64
2023/07/29 10:25:57;;;;;;;;;3.75;3.75;;;;;23.99;54.65;100567.13;5040597;28;45962;-64
2023/07/29 10:28:25;;;;;;;;;2.50;2.25;;;;;24.00;54.54;100571.53;5040869;28;45217;-64
2023/07/29 10:30:51;;;;;;;;;3.00;1.00;;;;;23.97;54.44;100570.91;5040491;28;45446;-64
2023/07/29 10:33:17;;;;;;;;;2.00;2.00;;;;;23.98;54.49;100578.81;5040512;28;46409;-64
2023/07/29 10:35:42;;;;;;;;;4.25;4.00;;;;;23.97;54.43;100571.75;5040373;28;45345;-64
2023/07/29 10:38:08;;;;;;;;;3.50;2.25;;;;;23.95;54.36;100576.38;5040834;28;45309;-64
2023/07/29 10:40:47;;;;;;;;;1.50;1.50;;;;;23.91;54.25;100568.63;5040385;28;45384;-64
2023/07/29 10:43:18;;;;;;;;;2.00;2.00;;;;;23.90;53.87;100573.16;5040516;28;46249;-64
2023/07/29 10:45:43;;;;;;;;;3.75;3.50;;;;;23.88;54.21;100566.19;5040104;28;45313;-64
2023/07/29 10:48:13;;;;;;;;;4.00;4.00;;;;;23.88;54.13;100561.66;5040480;28;45250;-64
2023/07/29 10:50:39;;;;;;;;;2.75;2.75;;;;;23.89;54.21;100567.91;5040370;28;45307;-64
2023/07/29 10:53:04;;;;;;;;;3.25;3.25;;;;;23.90;54.07;100566.91;5040247;28;45243;-64
2023/07/29 10:55:36;;;;;;;;;4.00;3.50;;;;;23.92;53.91;100563.19;5040030;28;45261;-64
2023/07/29 10:58:17;;;;;;;;;3.75;3.75;;;;;23.93;54.26;100567.59;5040447;28;45312;-64
2023/07/29 11:00:46;;;;;;;;;2.25;2.25;;;;;23.97;54.29;100574.44;5014864;28;45526;-64
2023/07/29 11:03:16;;;;;;;;;2.00;2.00;;;;;24.00;53.92;100565.31;5032788;28;47503;-64
2023/07/29 11:05:45;;;;;;;;;3.25;3.25;;;;;24.00;53.92;100560.81;5038840;28;45316;-64
2023/07/29 11:08:30;;;;;;;;;3.50;2.50;;;;;24.01;53.48;100559.84;5040155;28;45539;-64
2023/07/29 11:11:05;;;;;;;;;2.75;2.75;;;;;24.05;53.88;100565.84;5039926;28;45490;-63
2023/07/29 11:13:32;;;;;;;;;1.75;1.75;;;;;24.06;53.97;100559.47;5039946;28;45425;-64
2023/07/29 11:15:59;;;;;;;;;2.50;0.75;;;;;24.06;54.03;100554.09;5039684;28;45291;-64
2023/07/29 11:18:33;;;;;;;;;1.50;1.50;;;;;24.16;53.78;100546.22;5040196;28;45263;-64
2023/07/29 11:21:00;;;;;;;;;1.00;1.00;;;;;24.26;54.14;100544.56;5040078;28;45411;-64